createdAt,value
2022-11-03T00:01:16.435Z,39.19
2022-11-03T00:03:44.365Z,39.11
2022-11-03T00:06:12.295Z,39.45
2022-11-03T00:08:41.294Z,39.01
2022-11-03T00:11:10.912Z,39.11
2022-11-03T00:13:39.918Z,39.26
2022-11-03T00:16:09.566Z,39.05
2022-11-03T00:18:37.471Z,38.92
2022-11-03T00:21:06.563Z,39.04
2022-11-03T00:23:35.243Z,39.15
2022-11-03T00:26:07.855Z,39.35
2022-11-03T00:28:35.820Z,38.97
2022-11-03T00:31:07.994Z,38.89
2022-11-03T00:33:37.280Z,38.97
2022-11-03T00:36:05.867Z,39.03
2022-11-03T00:38:33.757Z,39.25
2022-11-03T00:41:02.917Z,39.09
2022-11-03T00:43:31.452Z,39.02
2022-11-03T00:45:59.600Z,38.90
2022-11-03T00:48:34.387Z,38.91
2022-11-03T00:51:08.638Z,39.31
2022-11-03T00:53:37.192Z,38.73
2022-11-03T00:56:05.368Z,38.91
2022-11-03T00:58:33.568Z,38.83
2022-11-03T01:01:06.165Z,39.01
2022-11-03T01:03:34.507Z,39.15
2022-11-03T01:06:19.465Z,38.84
2022-11-03T01:08:48.707Z,39.06
2022-11-03T01:11:34.920Z,38.89
2022-11-03T01:14:02.769Z,39.26
2022-11-03T01:16:30.648Z,39.13
2022-11-03T01:18:58.706Z,39.13
2022-11-03T01:21:26.833Z,38.67
2022-11-03T01:23:56.119Z,38.83
2022-11-03T01:26:23.997Z,38.84
2022-11-03T01:28:51.851Z,39.13
2022-11-03T01:31:21.016Z,38.81
2022-11-03T01:33:50.180Z,38.86
2022-11-03T01:36:18.207Z,38.91
2022-11-03T01:38:46.108Z,39.07
2022-11-03T01:41:18.112Z,39.09
2022-11-03T01:43:46.042Z,39.03
2022-11-03T01:46:18.091Z,38.86
2022-11-03T01:48:48.140Z,38.92
2022-11-03T01:51:17.158Z,38.87
2022-11-03T01:53:45.878Z,38.83
2022-11-03T01:56:15.149Z,38.64
2022-11-03T01:58:44.763Z,38.89
2022-11-03T02:01:13.292Z,39.12
2022-11-03T02:03:42.595Z,39.25
2022-11-03T02:06:10.455Z,39.09
2022-11-03T02:08:41.238Z,38.89
2022-11-03T02:11:23.195Z,38.89
2022-11-03T02:13:52.480Z,38.89
2022-11-03T02:18:55.650Z,38.93
2022-11-03T02:21:26.648Z,38.88
2022-11-03T02:23:56.219Z,38.80
2022-11-03T02:26:25.779Z,38.78
2022-11-03T02:31:25.112Z,38.68
2022-11-03T02:33:55.497Z,38.92
2022-11-03T02:36:24.414Z,38.93
2022-11-03T02:38:56.107Z,38.84
2022-11-03T02:41:25.506Z,38.81
2022-11-03T02:43:53.673Z,38.67
2022-11-03T02:46:21.937Z,38.79
2022-11-03T02:48:50.047Z,38.55
2022-11-03T02:51:17.914Z,38.84
2022-11-03T02:53:49.243Z,38.87
2022-11-03T02:56:19.265Z,38.79
2022-11-03T02:58:51.790Z,38.68
2022-11-03T03:01:21.295Z,38.65
2022-11-03T03:03:50.191Z,38.73
2022-11-03T03:06:20.364Z,38.85
2022-11-03T03:08:50.311Z,38.83
2022-11-03T03:11:37.403Z,38.78
2022-11-03T03:14:10.681Z,38.87
2022-11-03T03:16:51.346Z,38.82
2022-11-03T03:19:30.659Z,38.98
2022-11-03T03:21:59.348Z,38.89
2022-11-03T03:24:32.263Z,38.84
2022-11-03T03:27:00.229Z,38.71
2022-11-03T03:29:31.985Z,38.82
2022-11-03T03:32:01.201Z,38.93
2022-11-03T03:34:35.159Z,38.76
2022-11-03T03:37:04.072Z,38.79
2022-11-03T03:39:32.946Z,39.00
2022-11-03T03:42:00.830Z,38.52
2022-11-03T03:44:30.450Z,38.74
2022-11-03T03:47:07.046Z,38.82
2022-11-03T03:49:34.907Z,38.67
2022-11-03T03:52:03.791Z,38.83
2022-11-03T03:54:31.957Z,38.55
2022-11-03T03:57:02.003Z,38.81
2022-11-03T03:59:31.268Z,39.01
2022-11-03T04:01:59.530Z,38.73
2022-11-03T04:04:27.808Z,38.52
2022-11-03T04:07:09.494Z,38.92
2022-11-03T04:09:37.403Z,38.55
2022-11-03T04:12:23.868Z,38.94
2022-11-03T04:15:10.519Z,38.95
2022-11-03T04:17:56.058Z,38.47
2022-11-03T04:20:41.397Z,38.65
2022-11-03T04:23:09.266Z,38.98
2022-11-03T04:25:37.413Z,38.57
2022-11-03T04:28:09.627Z,38.99
2022-11-03T04:30:38.873Z,39.02
2022-11-03T04:33:06.794Z,38.95
2022-11-03T04:35:34.999Z,38.93
2022-11-03T04:38:04.916Z,38.79
2022-11-03T04:40:33.482Z,39.01
2022-11-03T04:43:01.431Z,39.40
2022-11-03T04:45:30.679Z,39.13
2022-11-03T04:48:00.445Z,39.22
2022-11-03T04:50:28.344Z,38.95
2022-11-03T04:52:56.866Z,38.94
2022-11-03T04:55:25.233Z,38.95
2022-11-03T04:57:58.481Z,38.95
2022-11-03T05:00:26.372Z,38.61
2022-11-03T05:02:56.188Z,39.01
2022-11-03T05:05:26.780Z,38.81
2022-11-03T05:07:55.584Z,38.99
2022-11-03T05:10:25.535Z,39.22
2022-11-03T05:12:53.410Z,38.80
2022-11-03T05:15:31.954Z,39.00
2022-11-03T05:18:01.068Z,39.03
2022-11-03T05:20:36.059Z,38.97
2022-11-03T05:23:04.913Z,38.89
2022-11-03T05:25:38.271Z,38.84
2022-11-03T05:28:21.192Z,38.84
2022-11-03T05:30:49.351Z,39.12
2022-11-03T05:33:23.216Z,39.05
2022-11-03T05:35:52.523Z,38.78
2022-11-03T05:38:21.115Z,38.99
2022-11-03T05:40:51.487Z,38.97
2022-11-03T05:43:19.358Z,39.16
2022-11-03T05:45:47.237Z,39.12
2022-11-03T05:48:19.440Z,38.95
2022-11-03T05:50:47.344Z,39.11
2022-11-03T05:53:26.913Z,38.98
2022-11-03T05:55:55.033Z,38.94
2022-11-03T05:58:25.332Z,38.86
2022-11-03T06:00:53.202Z,38.93
2022-11-03T06:03:24.210Z,39.19
2022-11-03T06:05:52.282Z,39.03
2022-11-03T06:10:56.556Z,39.06
2022-11-03T06:13:28.224Z,39.17
2022-11-03T06:15:58.267Z,39.11
2022-11-03T06:18:27.359Z,39.03
2022-11-03T06:20:56.904Z,39.17
2022-11-03T06:23:26.183Z,39.07
2022-11-03T06:25:54.421Z,39.38
2022-11-03T06:28:24.020Z,39.50
2022-11-03T06:30:52.295Z,39.00
2022-11-03T06:33:21.562Z,39.11
2022-11-03T06:35:49.469Z,38.88
2022-11-03T06:38:20.162Z,38.80
2022-11-03T06:40:50.045Z,39.36
2022-11-03T06:43:22.246Z,39.15
2022-11-03T06:45:52.013Z,39.27
2022-11-03T06:48:27.435Z,38.92
2022-11-03T06:50:55.654Z,39.49
2022-11-03T06:53:25.966Z,39.22
2022-11-03T06:55:55.369Z,39.10
2022-11-03T06:58:28.591Z,39.14
2022-11-03T07:01:02.831Z,38.99
2022-11-03T07:03:33.318Z,39.49
2022-11-03T07:06:03.088Z,39.05
2022-11-03T07:08:32.227Z,39.39
2022-11-03T07:11:08.161Z,39.08
2022-11-03T07:13:36.056Z,39.04
2022-11-03T07:16:03.987Z,39.07
2022-11-03T07:18:34.560Z,39.26
2022-11-03T07:21:04.461Z,39.24
2022-11-03T07:23:32.378Z,39.38
2022-11-03T07:26:01.557Z,39.11
2022-11-03T07:28:33.740Z,39.06
2022-11-03T07:31:02.633Z,39.05
2022-11-03T07:33:31.351Z,39.09
2022-11-03T07:36:16.839Z,39.29
2022-11-03T07:38:46.222Z,39.35
2022-11-03T07:41:15.425Z,39.04
2022-11-03T07:43:52.532Z,39.32
2022-11-03T07:46:21.386Z,39.20
2022-11-03T07:48:49.958Z,39.22
2022-11-03T07:51:20.118Z,39.28
2022-11-03T07:53:48.507Z,39.28
2022-11-03T07:56:19.380Z,39.57
2022-11-03T07:58:49.712Z,39.27
2022-11-03T08:01:26.375Z,39.31
2022-11-03T08:03:54.476Z,39.56
2022-11-03T08:06:22.345Z,39.25
2022-11-03T08:08:50.201Z,39.11
2022-11-03T08:11:18.083Z,39.37
2022-11-03T08:13:45.946Z,39.19
2022-11-03T08:16:15.178Z,39.58
2022-11-03T08:18:43.057Z,39.25
2022-11-03T08:21:11.042Z,39.29
2022-11-03T08:23:43.171Z,39.10
2022-11-03T08:26:14.030Z,39.58
2022-11-03T08:28:42.194Z,39.28
2022-11-03T08:31:12.960Z,39.27
2022-11-03T08:33:42.687Z,39.20
2022-11-03T08:36:10.997Z,39.22
2022-11-03T08:38:39.331Z,39.56
2022-11-03T08:41:07.326Z,39.16
2022-11-03T08:43:35.219Z,39.13
2022-11-03T08:46:09.754Z,39.35
2022-11-03T08:48:42.279Z,39.06
2022-11-03T08:51:13.261Z,39.14
2022-11-03T08:53:42.611Z,39.35
2022-11-03T08:56:12.889Z,39.49
2022-11-03T08:58:42.652Z,39.25
2022-11-03T09:01:10.595Z,39.33
2022-11-03T09:03:39.162Z,39.14
2022-11-03T09:06:08.733Z,39.17
2022-11-03T09:11:24.823Z,39.21
2022-11-03T09:13:52.913Z,39.31
2022-11-03T09:16:20.788Z,39.34
2022-11-03T09:18:48.696Z,39.31
2022-11-03T09:21:18.405Z,39.46
2022-11-03T09:23:46.309Z,39.54
2022-11-03T09:26:14.257Z,39.43
2022-11-03T09:28:42.167Z,39.33
2022-11-03T09:31:10.033Z,39.32
2022-11-03T09:33:38.209Z,39.28
2022-11-03T09:36:06.479Z,39.21
2022-11-03T09:38:35.755Z,39.07
2022-11-03T09:41:09.628Z,39.38
2022-11-03T09:43:47.030Z,39.43
2022-11-03T09:46:15.185Z,39.31
2022-11-03T09:48:43.084Z,39.15
2022-11-03T09:51:11.006Z,39.40
2022-11-03T09:53:40.346Z,39.29
2022-11-03T09:56:10.062Z,39.38
2022-11-03T09:58:38.187Z,39.63
2022-11-03T10:01:06.546Z,39.41
2022-11-03T10:03:34.513Z,39.09
2022-11-03T10:06:02.512Z,39.45
2022-11-03T10:08:31.901Z,39.27
2022-11-03T10:11:01.160Z,39.39
2022-11-03T10:13:30.744Z,39.31
2022-11-03T10:15:58.706Z,39.19
2022-11-03T10:18:27.088Z,39.39
2022-11-03T10:20:54.936Z,39.45
2022-11-03T10:23:22.916Z,39.61
2022-11-03T10:25:50.887Z,39.59
2022-11-03T10:28:21.549Z,39.32
2022-11-03T10:31:12.987Z,39.38
2022-11-03T10:33:42.118Z,39.47
2022-11-03T10:36:23.907Z,39.28
2022-11-03T10:38:51.856Z,39.47
2022-11-03T10:41:20.534Z,39.53
2022-11-03T10:44:02.291Z,39.51
2022-11-03T10:46:50.075Z,39.54
2022-11-03T10:49:19.541Z,39.28
2022-11-03T10:51:49.185Z,39.66
2022-11-03T10:54:18.264Z,39.62
2022-11-03T10:56:46.404Z,39.55
2022-11-03T10:59:17.590Z,39.55
2022-11-03T11:01:45.555Z,39.50
2022-11-03T11:04:13.902Z,39.43
2022-11-03T11:06:41.794Z,39.39
2022-11-03T11:09:10.961Z,39.58
2022-11-03T11:11:38.894Z,39.55
2022-11-03T11:14:24.178Z,39.14
2022-11-03T11:16:52.931Z,39.62
2022-11-03T11:19:22.415Z,39.43
2022-11-03T11:22:14.529Z,39.50
2022-11-03T11:25:01.380Z,39.56
2022-11-03T11:27:58.614Z,39.48
2022-11-03T11:31:03.135Z,39.53
2022-11-03T11:33:34.236Z,39.61
2022-11-03T11:36:28.915Z,39.59
2022-11-03T11:39:00.203Z,39.54
2022-11-03T11:42:05.349Z,39.66
2022-11-03T11:44:59.196Z,39.33
2022-11-03T11:47:29.068Z,39.31
2022-11-03T11:50:17.296Z,39.77
2022-11-03T11:52:46.414Z,39.62
2022-11-03T11:55:18.582Z,39.64
2022-11-03T11:57:46.599Z,39.41
2022-11-03T12:00:22.426Z,39.39
2022-11-03T12:02:50.301Z,39.28
2022-11-03T12:05:24.227Z,39.48
2022-11-03T12:07:52.094Z,39.44
2022-11-03T12:10:22.722Z,39.15
2022-11-03T12:12:50.813Z,39.21
2022-11-03T12:15:50.703Z,39.43
2022-11-03T12:18:39.895Z,39.43
2022-11-03T12:21:11.252Z,39.14
2022-11-03T12:23:41.376Z,39.75
2022-11-03T12:26:16.370Z,39.25
2022-11-03T12:28:44.378Z,39.36
2022-11-03T12:31:12.527Z,39.14
2022-11-03T12:33:40.483Z,39.58
2022-11-03T12:36:10.576Z,39.67
2022-11-03T12:38:38.424Z,39.59
2022-11-03T12:41:20.197Z,39.30
2022-11-03T12:43:48.711Z,39.43
2022-11-03T12:46:17.421Z,39.55
2022-11-03T12:48:45.637Z,39.53
2022-11-03T12:51:15.377Z,39.62
2022-11-03T12:53:43.309Z,39.44
2022-11-03T12:56:12.440Z,39.29
2022-11-03T12:58:40.643Z,39.52
2022-11-03T13:01:08.704Z,39.23
2022-11-03T13:03:36.902Z,39.61
2022-11-03T13:06:09.911Z,39.26
2022-11-03T13:08:39.270Z,39.52
2022-11-03T13:11:28.011Z,39.08
2022-11-03T13:13:55.979Z,39.46
2022-11-03T13:16:23.837Z,39.34
2022-11-03T13:18:51.719Z,39.54
2022-11-03T13:21:19.602Z,39.54
2022-11-03T13:23:48.883Z,39.35
2022-11-03T13:26:16.762Z,39.37
2022-11-03T13:28:45.124Z,39.42
2022-11-03T13:31:13.029Z,39.43
2022-11-03T13:33:40.932Z,39.49
2022-11-03T13:36:09.622Z,39.54
2022-11-03T13:38:37.625Z,39.38
2022-11-03T13:41:09.062Z,39.45
2022-11-03T13:43:37.405Z,39.48
2022-11-03T13:46:05.528Z,39.40
2022-11-03T13:51:21.657Z,39.37
2022-11-03T13:59:28.055Z,39.67
2022-11-03T14:04:44.945Z,39.47
2022-11-03T14:07:13.088Z,39.09
2022-11-03T14:09:40.948Z,39.48
2022-11-03T14:12:27.820Z,39.36
2022-11-03T14:14:55.685Z,39.48
2022-11-03T14:17:24.620Z,39.50
2022-11-03T14:19:55.593Z,39.14
2022-11-03T14:22:27.186Z,39.38
2022-11-03T14:24:55.112Z,39.55
2022-11-03T14:27:24.462Z,39.42
2022-11-03T14:29:52.640Z,39.52
2022-11-03T14:32:20.640Z,39.49
2022-11-03T14:34:48.857Z,39.41
2022-11-03T14:37:16.901Z,39.42
2022-11-03T14:39:45.163Z,39.40
2022-11-03T14:42:15.566Z,39.58
2022-11-03T14:44:45.974Z,39.66
2022-11-03T14:47:14.929Z,39.59
2022-11-03T14:49:42.874Z,39.25
2022-11-03T14:52:10.823Z,39.40
2022-11-03T14:54:38.740Z,39.57
2022-11-03T14:57:06.632Z,39.71
2022-11-03T14:59:34.986Z,39.49
2022-11-03T15:02:04.532Z,39.59
2022-11-03T15:04:32.506Z,39.34
2022-11-03T15:07:00.459Z,39.46
2022-11-03T15:09:28.634Z,39.61
2022-11-03T15:11:56.505Z,39.46
2022-11-03T15:14:24.450Z,39.60
2022-11-03T15:16:52.315Z,39.50
2022-11-03T15:19:21.894Z,39.65
2022-11-03T15:21:49.811Z,39.67
2022-11-03T15:27:05.694Z,39.84
2022-11-03T15:29:33.823Z,39.61
2022-11-03T15:32:01.751Z,39.70
2022-11-03T15:34:31.062Z,39.83
2022-11-03T15:36:59.192Z,39.70
2022-11-03T15:39:29.638Z,39.43
2022-11-03T15:41:57.636Z,39.67
2022-11-03T15:44:25.616Z,39.70
2022-11-03T15:46:53.529Z,39.67
2022-11-03T15:49:21.715Z,39.32
2022-11-03T15:51:51.534Z,39.60
2022-11-03T15:54:19.350Z,39.89
2022-11-03T15:56:47.290Z,39.81
2022-11-03T15:59:15.454Z,39.50
2022-11-03T16:01:43.569Z,39.72
2022-11-03T16:04:11.592Z,39.69
2022-11-03T16:07:06.192Z,39.73
2022-11-03T16:09:29.663Z,39.47
2022-11-03T16:11:57.511Z,39.66
2022-11-03T16:14:25.390Z,39.75
2022-11-03T16:16:53.366Z,39.64
2022-11-03T16:19:21.522Z,39.69
2022-11-03T16:21:49.443Z,39.56
2022-11-03T16:24:17.324Z,39.52
2022-11-03T16:26:46.593Z,39.58
2022-11-03T16:29:14.764Z,39.62
2022-11-03T16:31:42.727Z,39.84
2022-11-03T16:34:10.593Z,39.70
2022-11-03T16:36:38.426Z,39.94
2022-11-03T16:39:06.617Z,39.84
2022-11-03T16:41:34.495Z,39.48
2022-11-03T16:44:03.774Z,39.83
2022-11-03T16:46:31.672Z,39.67
2022-11-03T16:51:32.628Z,39.53
2022-11-03T16:54:00.479Z,39.83
2022-11-03T16:56:28.657Z,39.69
2022-11-03T16:58:56.571Z,39.64
2022-11-03T17:01:25.956Z,39.70
2022-11-03T17:03:54.077Z,39.87
2022-11-03T17:06:22.151Z,39.86
2022-11-03T17:08:53.152Z,39.87
2022-11-03T17:11:36.023Z,39.85
2022-11-03T17:14:05.512Z,39.75
2022-11-03T17:16:35.134Z,39.71
2022-11-03T17:19:03.040Z,39.94
2022-11-03T17:21:30.904Z,39.71
2022-11-03T17:23:59.925Z,39.52
2022-11-03T17:26:30.889Z,39.75
2022-11-03T17:28:59.184Z,39.86
2022-11-03T17:31:27.080Z,39.68
2022-11-03T17:33:57.557Z,39.67
2022-11-03T17:36:25.767Z,39.95
2022-11-03T17:38:54.105Z,39.72
2022-11-03T17:41:24.433Z,39.58
2022-11-03T17:43:52.444Z,39.82
2022-11-03T17:46:20.688Z,39.67
2022-11-03T17:48:48.729Z,39.75
2022-11-03T17:51:18.025Z,39.80
2022-11-03T17:53:46.637Z,39.78
2022-11-03T17:56:29.520Z,39.65
2022-11-03T17:58:58.903Z,39.67
2022-11-03T18:01:27.644Z,39.87
2022-11-03T18:03:55.735Z,39.72
2022-11-03T18:06:25.513Z,39.82
2022-11-03T18:08:53.713Z,39.79
2022-11-03T18:11:42.028Z,39.81
2022-11-03T18:14:09.931Z,39.73
2022-11-03T18:16:37.903Z,39.83
2022-11-03T18:19:05.770Z,39.93
2022-11-03T18:21:35.042Z,39.78
2022-11-03T18:24:03.082Z,39.76
2022-11-03T18:26:30.982Z,39.74
2022-11-03T18:28:59.193Z,39.51
2022-11-03T18:31:34.413Z,40.33
2022-11-03T18:34:02.789Z,39.58
2022-11-03T18:36:31.764Z,39.90
2022-11-03T18:39:01.317Z,40.15
2022-11-03T18:41:39.486Z,39.84
2022-11-03T18:44:16.122Z,40.04
2022-11-03T18:46:44.173Z,40.12
2022-11-03T18:49:12.123Z,40.00
2022-11-03T18:51:40.207Z,39.98
2022-11-03T18:54:12.313Z,39.91
2022-11-03T18:56:40.289Z,40.02
2022-11-03T18:59:10.876Z,39.80
2022-11-03T19:01:39.028Z,39.74
2022-11-03T19:04:11.053Z,39.79
2022-11-03T19:06:38.912Z,39.76
2022-11-03T19:09:15.852Z,39.96
2022-11-03T19:11:43.889Z,39.99
2022-11-03T19:14:14.078Z,40.36
2022-11-03T19:16:50.223Z,40.10
2022-11-03T19:19:29.990Z,39.84
2022-11-03T19:21:58.169Z,40.00
2022-11-03T19:24:27.445Z,39.99
2022-11-03T19:26:57.254Z,39.79
2022-11-03T19:29:26.185Z,39.97
2022-11-03T19:31:54.013Z,39.94
2022-11-03T19:34:23.710Z,40.10
2022-11-03T19:36:51.671Z,39.95
2022-11-03T19:39:23.555Z,39.87
2022-11-03T19:42:10.471Z,39.99
2022-11-03T19:44:38.940Z,40.04
2022-11-03T19:47:06.853Z,39.77
2022-11-03T19:49:35.176Z,39.91
2022-11-03T19:52:03.079Z,39.72
2022-11-03T19:54:30.948Z,40.00
2022-11-03T19:57:00.232Z,39.66
2022-11-03T19:59:29.630Z,39.86
2022-11-03T20:01:57.663Z,40.20
2022-11-03T20:04:26.173Z,39.53
2022-11-03T20:06:54.131Z,39.81
2022-11-03T20:09:23.353Z,40.14
2022-11-03T20:11:51.687Z,39.60
2022-11-03T20:14:23.948Z,39.93
2022-11-03T20:16:51.809Z,40.17
2022-11-03T20:19:20.496Z,40.23
2022-11-03T20:21:48.367Z,39.92
2022-11-03T20:24:16.549Z,39.84
2022-11-03T20:26:44.601Z,39.81
2022-11-03T20:29:13.602Z,39.88
2022-11-03T20:31:43.290Z,39.98
2022-11-03T20:34:11.868Z,39.89
2022-11-03T20:36:39.779Z,40.01
2022-11-03T20:39:07.923Z,40.21
2022-11-03T20:41:35.872Z,40.13
2022-11-03T20:44:03.784Z,39.78
2022-11-03T20:46:32.731Z,40.05
2022-11-03T20:49:02.329Z,40.22
2022-11-03T20:51:32.933Z,40.15
2022-11-03T20:54:00.784Z,39.71
2022-11-03T20:56:29.244Z,40.05
2022-11-03T20:58:58.142Z,39.94
2022-11-03T21:01:26.876Z,39.93
2022-11-03T21:03:59.756Z,40.00
2022-11-03T21:06:30.255Z,39.70
2022-11-03T21:08:58.563Z,39.84
2022-11-03T21:11:28.375Z,40.01
2022-11-03T21:13:57.066Z,39.88
2022-11-03T21:16:54.286Z,39.98
2022-11-03T21:19:40.365Z,39.79
2022-11-03T21:25:02.746Z,40.02
2022-11-03T21:27:30.644Z,40.31
2022-11-03T21:29:59.918Z,39.95
2022-11-03T21:32:28.253Z,39.87
2022-11-03T21:34:56.100Z,39.78
2022-11-03T21:37:25.395Z,39.96
2022-11-03T21:39:53.546Z,40.10
2022-11-03T21:42:38.853Z,40.36
2022-11-03T21:45:09.193Z,40.12
2022-11-03T21:47:37.097Z,39.96
2022-11-03T21:50:04.365Z,39.87
2022-11-03T21:52:33.883Z,40.29
2022-11-03T21:55:02.328Z,39.76
2022-11-03T21:57:30.276Z,40.01
2022-11-03T21:59:59.403Z,40.25
2022-11-03T22:02:29.885Z,39.91
2022-11-03T22:04:58.078Z,40.02
2022-11-03T22:07:25.976Z,39.95
2022-11-03T22:09:55.556Z,40.14
2022-11-03T22:12:24.162Z,39.95
2022-11-03T22:15:09.438Z,40.06
2022-11-03T22:17:37.628Z,39.79
2022-11-03T22:20:23.580Z,40.02
2022-11-03T22:23:20.376Z,40.06
2022-11-03T22:26:07.643Z,40.09
2022-11-03T22:28:35.518Z,40.20
2022-11-03T22:31:22.301Z,39.99
2022-11-03T22:34:08.599Z,40.07
2022-11-03T22:36:36.497Z,40.01
2022-11-03T22:39:22.219Z,40.04
2022-11-03T22:42:08.982Z,40.32
2022-11-03T22:44:54.368Z,40.24
2022-11-03T22:47:22.310Z,40.36
2022-11-03T22:49:50.510Z,40.18
2022-11-03T22:52:18.382Z,40.07
2022-11-03T22:54:46.280Z,40.12
2022-11-03T22:57:15.535Z,40.30
2022-11-03T22:59:43.672Z,40.27
2022-11-03T23:02:11.619Z,40.04
2022-11-03T23:04:39.538Z,40.12
2022-11-03T23:07:07.448Z,40.24
2022-11-03T23:09:35.621Z,40.14
2022-11-03T23:12:03.487Z,40.15
2022-11-03T23:14:46.575Z,40.06
2022-11-03T23:17:14.479Z,40.06
2022-11-03T23:20:00.194Z,40.21
2022-11-03T23:22:28.051Z,40.15
2022-11-03T23:25:01.076Z,40.07
2022-11-03T23:27:29.008Z,40.02
2022-11-03T23:29:58.556Z,40.15
2022-11-03T23:32:26.487Z,39.98
2022-11-03T23:34:54.355Z,40.21
2022-11-03T23:37:22.204Z,40.08
2022-11-03T23:39:50.403Z,39.98
2022-11-03T23:42:18.309Z,40.09
2022-11-03T23:45:03.471Z,39.84
2022-11-03T23:47:50.501Z,40.03
2022-11-03T23:50:18.388Z,39.87
2022-11-03T23:52:46.228Z,39.80
2022-11-03T23:55:14.119Z,40.06
2022-11-03T23:57:59.435Z,39.83
